sensor_id;sensor_type;location;lat;lon;timestamp;P1;durP1;ratioP1;P2;durP2;ratioP2
73938;SDS011;62291;47.554;8.504;2022-09-09T00:04:45;6.03;;;2.80;;
73938;SDS011;62291;47.554;8.504;2022-09-09T00:10:22;9.80;;;3.05;;
73938;SDS011;62291;47.554;8.504;2022-09-09T00:21:44;7.88;;;2.97;;
73938;SDS011;62291;47.554;8.504;2022-09-09T00:27:35;3.90;;;2.60;;
73938;SDS011;62291;47.554;8.504;2022-09-09T00:32:27;11.13;;;3.30;;
73938;SDS011;62291;47.554;8.504;2022-09-09T00:34:55;8.20;;;3.20;;
73938;SDS011;62291;47.554;8.504;2022-09-09T00:37:26;6.68;;;2.90;;
73938;SDS011;62291;47.554;8.504;2022-09-09T00:39:57;11.25;;;2.97;;
73938;SDS011;62291;47.554;8.504;2022-09-09T00:47:45;7.40;;;3.22;;
73938;SDS011;62291;47.554;8.504;2022-09-09T00:59:01;11.23;;;3.00;;
73938;SDS011;62291;47.554;8.504;2022-09-09T01:01:47;6.40;;;2.75;;
73938;SDS011;62291;47.554;8.504;2022-09-09T01:04:16;7.68;;;3.15;;
73938;SDS011;62291;47.554;8.504;2022-09-09T01:06:50;7.20;;;3.15;;
73938;SDS011;62291;47.554;8.504;2022-09-09T01:09:25;6.82;;;3.22;;
73938;SDS011;62291;47.554;8.504;2022-09-09T01:12:15;10.35;;;3.03;;
73938;SDS011;62291;47.554;8.504;2022-09-09T01:15:17;9.35;;;3.00;;
73938;SDS011;62291;47.554;8.504;2022-09-09T01:20:14;9.02;;;2.90;;
73938;SDS011;62291;47.554;8.504;2022-09-09T01:27:48;7.40;;;2.65;;
73938;SDS011;62291;47.554;8.504;2022-09-09T01:30:16;8.65;;;2.75;;
73938;SDS011;62291;47.554;8.504;2022-09-09T01:32:44;9.57;;;3.03;;
73938;SDS011;62291;47.554;8.504;2022-09-09T01:36:02;12.60;;;3.10;;
73938;SDS011;62291;47.554;8.504;2022-09-09T01:38:19;4.20;;;2.53;;
73938;SDS011;62291;47.554;8.504;2022-09-09T01:40:47;11.88;;;2.50;;
73938;SDS011;62291;47.554;8.504;2022-09-09T01:43:13;7.75;;;2.60;;
73938;SDS011;62291;47.554;8.504;2022-09-09T01:45:39;14.27;;;3.03;;
73938;SDS011;62291;47.554;8.504;2022-09-09T01:48:07;7.15;;;2.65;;
73938;SDS011;62291;47.554;8.504;2022-09-09T01:50:32;8.13;;;2.63;;
73938;SDS011;62291;47.554;8.504;2022-09-09T01:52:59;8.20;;;2.88;;
73938;SDS011;62291;47.554;8.504;2022-09-09T01:55:30;6.90;;;2.40;;
73938;SDS011;62291;47.554;8.504;2022-09-09T02:00:56;6.45;;;2.72;;
73938;SDS011;62291;47.554;8.504;2022-09-09T02:03:33;8.60;;;2.10;;
73938;SDS011;62291;47.554;8.504;2022-09-09T02:06:23;10.35;;;2.30;;
73938;SDS011;62291;47.554;8.504;2022-09-09T02:08:56;8.45;;;2.25;;
73938;SDS011;62291;47.554;8.504;2022-09-09T02:11:23;4.57;;;1.92;;
73938;SDS011;62291;47.554;8.504;2022-09-09T02:14:00;8.55;;;1.98;;
73938;SDS011;62291;47.554;8.504;2022-09-09T02:16:49;6.22;;;2.00;;
73938;SDS011;62291;47.554;8.504;2022-09-09T02:19:21;6.88;;;2.30;;
73938;SDS011;62291;47.554;8.504;2022-09-09T02:21:52;6.72;;;2.00;;
73938;SDS011;62291;47.554;8.504;2022-09-09T02:24:20;7.07;;;2.30;;
73938;SDS011;62291;47.554;8.504;2022-09-09T02:26:47;7.15;;;2.20;;
73938;SDS011;62291;47.554;8.504;2022-09-09T02:29:26;8.00;;;2.47;;
73938;SDS011;62291;47.554;8.504;2022-09-09T02:31:59;10.95;;;2.25;;
73938;SDS011;62291;47.554;8.504;2022-09-09T02:34:29;5.47;;;1.87;;
73938;SDS011;62291;47.554;8.504;2022-09-09T02:36:57;5.97;;;1.88;;
73938;SDS011;62291;47.554;8.504;2022-09-09T02:39:25;7.68;;;2.28;;
73938;SDS011;62291;47.554;8.504;2022-09-09T02:41:51;7.65;;;2.33;;
73938;SDS011;62291;47.554;8.504;2022-09-09T02:44:18;7.45;;;2.33;;
73938;SDS011;62291;47.554;8.504;2022-09-09T02:57:06;3.92;;;1.65;;
73938;SDS011;62291;47.554;8.504;2022-09-09T02:59:36;7.20;;;2.15;;
73938;SDS011;62291;47.554;8.504;2022-09-09T03:02:03;8.10;;;1.90;;
73938;SDS011;62291;47.554;8.504;2022-09-09T03:04:29;7.25;;;2.53;;
73938;SDS011;62291;47.554;8.504;2022-09-09T03:06:56;7.32;;;1.98;;
73938;SDS011;62291;47.554;8.504;2022-09-09T03:09:22;7.18;;;1.92;;
73938;SDS011;62291;47.554;8.504;2022-09-09T03:11:48;5.50;;;2.15;;
73938;SDS011;62291;47.554;8.504;2022-09-09T03:14:15;7.78;;;2.50;;
73938;SDS011;62291;47.554;8.504;2022-09-09T03:16:41;4.68;;;2.20;;
73938;SDS011;62291;47.554;8.504;2022-09-09T03:19:08;8.20;;;2.25;;
73938;SDS011;62291;47.554;8.504;2022-09-09T03:21:34;9.35;;;2.17;;
73938;SDS011;62291;47.554;8.504;2022-09-09T03:24:00;6.10;;;2.20;;
73938;SDS011;62291;47.554;8.504;2022-09-09T03:26:28;6.18;;;2.30;;
73938;SDS011;62291;47.554;8.504;2022-09-09T03:28:55;5.20;;;2.05;;
73938;SDS011;62291;47.554;8.504;2022-09-09T03:31:21;9.50;;;2.10;;
73938;SDS011;62291;47.554;8.504;2022-09-09T03:33:46;11.18;;;2.13;;
73938;SDS011;62291;47.554;8.504;2022-09-09T03:36:13;28.92;;;3.75;;
73938;SDS011;62291;47.554;8.504;2022-09-09T03:38:39;8.52;;;2.30;;
73938;SDS011;62291;47.554;8.504;2022-09-09T03:41:04;8.85;;;2.05;;
73938;SDS011;62291;47.554;8.504;2022-09-09T03:43:30;6.00;;;2.15;;
73938;SDS011;62291;47.554;8.504;2022-09-09T03:45:56;6.00;;;1.55;;
73938;SDS011;62291;47.554;8.504;2022-09-09T03:48:22;4.15;;;1.48;;
73938;SDS011;62291;47.554;8.504;2022-09-09T03:50:53;5.93;;;1.70;;
73938;SDS011;62291;47.554;8.504;2022-09-09T03:53:21;4.57;;;1.98;;
73938;SDS011;62291;47.554;8.504;2022-09-09T03:55:50;5.00;;;1.80;;
73938;SDS011;62291;47.554;8.504;2022-09-09T03:58:19;8.13;;;2.00;;
73938;SDS011;62291;47.554;8.504;2022-09-09T04:00:56;5.45;;;1.90;;
73938;SDS011;62291;47.554;8.504;2022-09-09T04:03:23;5.78;;;2.03;;
73938;SDS011;62291;47.554;8.504;2022-09-09T04:05:53;6.43;;;2.55;;
73938;SDS011;62291;47.554;8.504;2022-09-09T04:08:20;7.13;;;2.20;;
73938;SDS011;62291;47.554;8.504;2022-09-09T04:10:47;5.88;;;2.22;;
73938;SDS011;62291;47.554;8.504;2022-09-09T04:13:14;4.68;;;2.38;;
73938;SDS011;62291;47.554;8.504;2022-09-09T04:15:42;5.40;;;1.90;;
73938;SDS011;62291;47.554;8.504;2022-09-09T04:18:18;5.20;;;2.30;;
73938;SDS011;62291;47.554;8.504;2022-09-09T04:20:45;5.60;;;2.17;;
73938;SDS011;62291;47.554;8.504;2022-09-09T04:23:12;4.95;;;1.63;;
73938;SDS011;62291;47.554;8.504;2022-09-09T04:25:42;2.63;;;1.90;;
73938;SDS011;62291;47.554;8.504;2022-09-09T04:28:09;7.32;;;2.33;;
73938;SDS011;62291;47.554;8.504;2022-09-09T04:30:35;7.10;;;1.77;;
73938;SDS011;62291;47.554;8.504;2022-09-09T04:33:01;5.82;;;1.48;;
73938;SDS011;62291;47.554;8.504;2022-09-09T04:35:27;3.90;;;1.77;;
73938;SDS011;62291;47.554;8.504;2022-09-09T04:37:53;3.05;;;1.65;;
73938;SDS011;62291;47.554;8.504;2022-09-09T04:40:18;4.47;;;1.50;;
73938;SDS011;62291;47.554;8.504;2022-09-09T04:42:44;4.95;;;1.27;;
73938;SDS011;62291;47.554;8.504;2022-09-09T04:45:09;5.72;;;1.45;;
73938;SDS011;62291;47.554;8.504;2022-09-09T04:47:36;3.38;;;1.27;;
73938;SDS011;62291;47.554;8.504;2022-09-09T04:50:02;5.03;;;1.70;;
73938;SDS011;62291;47.554;8.504;2022-09-09T04:52:27;4.05;;;1.35;;
73938;SDS011;62291;47.554;8.504;2022-09-09T04:54:53;2.53;;;1.63;;
73938;SDS011;62291;47.554;8.504;2022-09-09T04:57:19;5.20;;;1.60;;
73938;SDS011;62291;47.554;8.504;2022-09-09T04:59:45;4.15;;;1.40;;
73938;SDS011;62291;47.554;8.504;2022-09-09T05:02:11;3.13;;;1.40;;
73938;SDS011;62291;47.554;8.504;2022-09-09T05:04:36;2.85;;;1.80;;
73938;SDS011;62291;47.554;8.504;2022-09-09T05:07:02;4.03;;;1.52;;
73938;SDS011;62291;47.554;8.504;2022-09-09T05:09:28;4.95;;;1.58;;
73938;SDS011;62291;47.554;8.504;2022-09-09T05:11:54;3.65;;;1.60;;
73938;SDS011;62291;47.554;8.504;2022-09-09T05:14:19;3.55;;;1.30;;
73938;SDS011;62291;47.554;8.504;2022-09-09T05:16:45;3.58;;;1.20;;
73938;SDS011;62291;47.554;8.504;2022-09-09T05:19:12;3.25;;;1.23;;
73938;SDS011;62291;47.554;8.504;2022-09-09T05:21:37;4.88;;;1.80;;
73938;SDS011;62291;47.554;8.504;2022-09-09T05:24:03;3.92;;;1.70;;
73938;SDS011;62291;47.554;8.504;2022-09-09T05:26:29;4.03;;;1.67;;
73938;SDS011;62291;47.554;8.504;2022-09-09T05:28:55;4.30;;;1.77;;
73938;SDS011;62291;47.554;8.504;2022-09-09T05:31:22;4.93;;;2.15;;
73938;SDS011;62291;47.554;8.504;2022-09-09T05:33:47;4.88;;;1.35;;
73938;SDS011;62291;47.554;8.504;2022-09-09T05:36:17;2.83;;;1.60;;
73938;SDS011;62291;47.554;8.504;2022-09-09T05:38:45;5.77;;;1.87;;
73938;SDS011;62291;47.554;8.504;2022-09-09T05:41:11;5.00;;;2.10;;
73938;SDS011;62291;47.554;8.504;2022-09-09T05:43:40;5.57;;;2.03;;
73938;SDS011;62291;47.554;8.504;2022-09-09T05:48:34;3.50;;;1.73;;
73938;SDS011;62291;47.554;8.504;2022-09-09T05:51:02;4.35;;;2.00;;
73938;SDS011;62291;47.554;8.504;2022-09-09T05:53:29;2.05;;;1.40;;
73938;SDS011;62291;47.554;8.504;2022-09-09T05:56:06;3.35;;;1.60;;
73938;SDS011;62291;47.554;8.504;2022-09-09T05:58:35;2.95;;;1.77;;
73938;SDS011;62291;47.554;8.504;2022-09-09T06:03:27;4.10;;;1.73;;
73938;SDS011;62291;47.554;8.504;2022-09-09T06:05:56;2.50;;;1.70;;
73938;SDS011;62291;47.554;8.504;2022-09-09T06:08:26;3.88;;;1.63;;
73938;SDS011;62291;47.554;8.504;2022-09-09T06:10:52;5.53;;;1.95;;
73938;SDS011;62291;47.554;8.504;2022-09-09T06:13:17;3.75;;;1.70;;
73938;SDS011;62291;47.554;8.504;2022-09-09T06:15:52;3.28;;;1.10;;
73938;SDS011;62291;47.554;8.504;2022-09-09T06:18:18;4.85;;;1.48;;
73938;SDS011;62291;47.554;8.504;2022-09-09T06:21:03;2.22;;;0.93;;
73938;SDS011;62291;47.554;8.504;2022-09-09T06:23:31;2.50;;;0.90;;
73938;SDS011;62291;47.554;8.504;2022-09-09T06:28:57;3.17;;;0.65;;
73938;SDS011;62291;47.554;8.504;2022-09-09T06:31:25;5.03;;;1.00;;
73938;SDS011;62291;47.554;8.504;2022-09-09T06:33:55;1.83;;;0.80;;
73938;SDS011;62291;47.554;8.504;2022-09-09T06:36:22;2.72;;;0.70;;
73938;SDS011;62291;47.554;8.504;2022-09-09T06:38:50;2.30;;;0.80;;
73938;SDS011;62291;47.554;8.504;2022-09-09T06:41:16;1.58;;;0.50;;
73938;SDS011;62291;47.554;8.504;2022-09-09T06:43:44;2.25;;;0.60;;
73938;SDS011;62291;47.554;8.504;2022-09-09T06:46:11;3.13;;;0.95;;
73938;SDS011;62291;47.554;8.504;2022-09-09T06:48:39;2.17;;;0.80;;
73938;SDS011;62291;47.554;8.504;2022-09-09T06:51:13;0.90;;;0.60;;
73938;SDS011;62291;47.554;8.504;2022-09-09T06:53:43;1.48;;;0.52;;
73938;SDS011;62291;47.554;8.504;2022-09-09T06:58:39;1.95;;;0.70;;
73938;SDS011;62291;47.554;8.504;2022-09-09T07:01:15;0.98;;;0.55;;
73938;SDS011;62291;47.554;8.504;2022-09-09T07:03:44;3.40;;;0.60;;
73938;SDS011;62291;47.554;8.504;2022-09-09T07:06:15;3.28;;;0.70;;
73938;SDS011;62291;47.554;8.504;2022-09-09T07:11:09;2.40;;;0.85;;
73938;SDS011;62291;47.554;8.504;2022-09-09T07:13:36;2.33;;;0.73;;
73938;SDS011;62291;47.554;8.504;2022-09-09T07:16:06;3.97;;;0.93;;
73938;SDS011;62291;47.554;8.504;2022-09-09T07:18:32;1.60;;;0.60;;
73938;SDS011;62291;47.554;8.504;2022-09-09T07:20:59;2.60;;;0.60;;
73938;SDS011;62291;47.554;8.504;2022-09-09T07:23:26;0.95;;;0.50;;
73938;SDS011;62291;47.554;8.504;2022-09-09T07:25:51;1.77;;;0.60;;
73938;SDS011;62291;47.554;8.504;2022-09-09T07:28:18;2.38;;;0.70;;
73938;SDS011;62291;47.554;8.504;2022-09-09T07:30:52;2.65;;;0.50;;
73938;SDS011;62291;47.554;8.504;2022-09-09T07:33:22;2.72;;;0.60;;
73938;SDS011;62291;47.554;8.504;2022-09-09T07:35:48;2.70;;;0.50;;
73938;SDS011;62291;47.554;8.504;2022-09-09T07:38:14;3.47;;;0.50;;
73938;SDS011;62291;47.554;8.504;2022-09-09T07:40:40;3.38;;;0.60;;
73938;SDS011;62291;47.554;8.504;2022-09-09T07:43:06;2.80;;;0.60;;
73938;SDS011;62291;47.554;8.504;2022-09-09T07:45:33;1.75;;;0.57;;
73938;SDS011;62291;47.554;8.504;2022-09-09T07:47:59;1.75;;;0.50;;
73938;SDS011;62291;47.554;8.504;2022-09-09T07:50:25;1.42;;;0.50;;
73938;SDS011;62291;47.554;8.504;2022-09-09T07:52:51;1.58;;;0.57;;
73938;SDS011;62291;47.554;8.504;2022-09-09T07:55:18;1.45;;;0.50;;
73938;SDS011;62291;47.554;8.504;2022-09-09T07:57:46;2.17;;;0.50;;
73938;SDS011;62291;47.554;8.504;2022-09-09T08:00:12;3.20;;;0.60;;
73938;SDS011;62291;47.554;8.504;2022-09-09T08:02:39;0.80;;;0.40;;
73938;SDS011;62291;47.554;8.504;2022-09-09T08:05:05;1.52;;;0.50;;
73938;SDS011;62291;47.554;8.504;2022-09-09T08:07:31;1.65;;;0.50;;
73938;SDS011;62291;47.554;8.504;2022-09-09T08:09:57;1.33;;;0.40;;
73938;SDS011;62291;47.554;8.504;2022-09-09T08:12:23;1.42;;;0.60;;
73938;SDS011;62291;47.554;8.504;2022-09-09T08:14:49;3.03;;;0.60;;
73938;SDS011;62291;47.554;8.504;2022-09-09T08:17:16;1.92;;;0.50;;
73938;SDS011;62291;47.554;8.504;2022-09-09T08:19:42;2.75;;;0.80;;
73938;SDS011;62291;47.554;8.504;2022-09-09T08:22:07;2.88;;;0.70;;
73938;SDS011;62291;47.554;8.504;2022-09-09T08:24:33;3.33;;;0.52;;
73938;SDS011;62291;47.554;8.504;2022-09-09T08:26:59;2.63;;;0.93;;
73938;SDS011;62291;47.554;8.504;2022-09-09T08:29:24;2.15;;;0.60;;
73938;SDS011;62291;47.554;8.504;2022-09-09T08:31:54;3.25;;;0.70;;
73938;SDS011;62291;47.554;8.504;2022-09-09T08:34:22;4.15;;;0.60;;
73938;SDS011;62291;47.554;8.504;2022-09-09T08:36:49;2.67;;;0.60;;
73938;SDS011;62291;47.554;8.504;2022-09-09T08:39:17;3.08;;;0.77;;
73938;SDS011;62291;47.554;8.504;2022-09-09T08:52:25;5.03;;;0.80;;
73938;SDS011;62291;47.554;8.504;2022-09-09T08:54:56;3.45;;;0.70;;
73938;SDS011;62291;47.554;8.504;2022-09-09T08:57:28;3.55;;;0.80;;
73938;SDS011;62291;47.554;8.504;2022-09-09T08:59:56;2.20;;;0.55;;
73938;SDS011;62291;47.554;8.504;2022-09-09T09:05:20;5.40;;;0.68;;
73938;SDS011;62291;47.554;8.504;2022-09-09T09:10:46;2.92;;;0.68;;
73938;SDS011;62291;47.554;8.504;2022-09-09T09:13:15;2.13;;;0.80;;
73938;SDS011;62291;47.554;8.504;2022-09-09T09:15:55;4.72;;;0.80;;
73938;SDS011;62291;47.554;8.504;2022-09-09T09:18:25;3.97;;;0.80;;
73938;SDS011;62291;47.554;8.504;2022-09-09T09:21:06;4.70;;;0.80;;
73938;SDS011;62291;47.554;8.504;2022-09-09T09:26:29;5.60;;;0.90;;
73938;SDS011;62291;47.554;8.504;2022-09-09T09:28:58;3.10;;;0.60;;
73938;SDS011;62291;47.554;8.504;2022-09-09T09:31:25;2.70;;;0.50;;
73938;SDS011;62291;47.554;8.504;2022-09-09T09:33:55;2.97;;;0.73;;
73938;SDS011;62291;47.554;8.504;2022-09-09T09:38:57;3.35;;;0.65;;
73938;SDS011;62291;47.554;8.504;2022-09-09T09:44:22;3.78;;;0.70;;
73938;SDS011;62291;47.554;8.504;2022-09-09T09:52:19;3.42;;;0.93;;
73938;SDS011;62291;47.554;8.504;2022-09-09T09:54:48;4.32;;;0.70;;
73938;SDS011;62291;47.554;8.504;2022-09-09T09:57:15;4.40;;;0.80;;
73938;SDS011;62291;47.554;8.504;2022-09-09T09:59:42;4.78;;;0.90;;
73938;SDS011;62291;47.554;8.504;2022-09-09T10:04:42;4.38;;;0.70;;
73938;SDS011;62291;47.554;8.504;2022-09-09T10:07:11;7.97;;;1.02;;
73938;SDS011;62291;47.554;8.504;2022-09-09T10:09:38;5.20;;;1.00;;
73938;SDS011;62291;47.554;8.504;2022-09-09T10:19:42;4.57;;;0.93;;
73938;SDS011;62291;47.554;8.504;2022-09-09T10:22:27;3.10;;;0.90;;
73938;SDS011;62291;47.554;8.504;2022-09-09T10:30:14;4.28;;;0.80;;
73938;SDS011;62291;47.554;8.504;2022-09-09T10:35:34;3.90;;;0.73;;
73938;SDS011;62291;47.554;8.504;2022-09-09T10:38:17;2.92;;;0.82;;
73938;SDS011;62291;47.554;8.504;2022-09-09T10:48:59;3.75;;;0.85;;
73938;SDS011;62291;47.554;8.504;2022-09-09T10:56:58;5.18;;;1.05;;
73938;SDS011;62291;47.554;8.504;2022-09-09T11:02:05;3.75;;;0.90;;
73938;SDS011;62291;47.554;8.504;2022-09-09T11:04:40;3.22;;;0.88;;
73938;SDS011;62291;47.554;8.504;2022-09-09T11:07:23;2.53;;;0.70;;
73938;SDS011;62291;47.554;8.504;2022-09-09T11:10:01;3.50;;;0.77;;
73938;SDS011;62291;47.554;8.504;2022-09-09T11:12:31;5.57;;;1.00;;
73938;SDS011;62291;47.554;8.504;2022-09-09T11:15:06;2.60;;;0.75;;
73938;SDS011;62291;47.554;8.504;2022-09-09T11:17:50;3.15;;;0.80;;
73938;SDS011;62291;47.554;8.504;2022-09-09T11:20:21;2.87;;;0.80;;
73938;SDS011;62291;47.554;8.504;2022-09-09T11:22:55;3.28;;;1.00;;
73938;SDS011;62291;47.554;8.504;2022-09-09T11:31:14;3.45;;;0.95;;
73938;SDS011;62291;47.554;8.504;2022-09-09T11:33:49;3.58;;;0.90;;
73938;SDS011;62291;47.554;8.504;2022-09-09T11:44:43;2.47;;;0.80;;
73938;SDS011;62291;47.554;8.504;2022-09-09T11:47:20;3.92;;;0.60;;
73938;SDS011;62291;47.554;8.504;2022-09-09T11:49:54;2.88;;;0.75;;
73938;SDS011;62291;47.554;8.504;2022-09-09T11:52:37;3.08;;;0.88;;
73938;SDS011;62291;47.554;8.504;2022-09-09T11:55:47;3.65;;;0.80;;
73938;SDS011;62291;47.554;8.504;2022-09-09T11:57:58;1.88;;;0.60;;
73938;SDS011;62291;47.554;8.504;2022-09-09T12:00:35;2.63;;;0.70;;
73938;SDS011;62291;47.554;8.504;2022-09-09T12:06:18;3.13;;;0.60;;
73938;SDS011;62291;47.554;8.504;2022-09-09T12:08:57;3.35;;;0.80;;
73938;SDS011;62291;47.554;8.504;2022-09-09T12:11:31;3.80;;;0.68;;
73938;SDS011;62291;47.554;8.504;2022-09-09T12:13:58;2.50;;;0.43;;
73938;SDS011;62291;47.554;8.504;2022-09-09T12:16:31;3.78;;;0.80;;
73938;SDS011;62291;47.554;8.504;2022-09-09T12:19:14;2.20;;;0.60;;
73938;SDS011;62291;47.554;8.504;2022-09-09T12:24:42;4.88;;;0.70;;
73938;SDS011;62291;47.554;8.504;2022-09-09T12:27:31;2.75;;;0.60;;
73938;SDS011;62291;47.554;8.504;2022-09-09T12:30:08;3.03;;;0.50;;
73938;SDS011;62291;47.554;8.504;2022-09-09T12:32:36;1.70;;;0.60;;
73938;SDS011;62291;47.554;8.504;2022-09-09T12:35:03;3.58;;;0.82;;
73938;SDS011;62291;47.554;8.504;2022-09-09T12:37:42;2.58;;;0.40;;
73938;SDS011;62291;47.554;8.504;2022-09-09T12:40:23;3.60;;;0.70;;
73938;SDS011;62291;47.554;8.504;2022-09-09T12:42:59;2.35;;;0.50;;
73938;SDS011;62291;47.554;8.504;2022-09-09T12:45:51;3.08;;;0.73;;
73938;SDS011;62291;47.554;8.504;2022-09-09T12:48:24;2.28;;;1.45;;
73938;SDS011;62291;47.554;8.504;2022-09-09T12:50:57;2.42;;;0.80;;
73938;SDS011;62291;47.554;8.504;2022-09-09T12:53:24;2.70;;;0.75;;
73938;SDS011;62291;47.554;8.504;2022-09-09T12:55:57;2.20;;;0.80;;
73938;SDS011;62291;47.554;8.504;2022-09-09T12:58:25;2.72;;;0.95;;
73938;SDS011;62291;47.554;8.504;2022-09-09T13:00:54;3.47;;;0.50;;
73938;SDS011;62291;47.554;8.504;2022-09-09T13:03:21;2.15;;;0.50;;
73938;SDS011;62291;47.554;8.504;2022-09-09T13:05:48;1.48;;;0.60;;
73938;SDS011;62291;47.554;8.504;2022-09-09T13:08:15;1.88;;;0.50;;
73938;SDS011;62291;47.554;8.504;2022-09-09T13:10:55;1.65;;;0.47;;
73938;SDS011;62291;47.554;8.504;2022-09-09T13:13:42;2.30;;;0.47;;
73938;SDS011;62291;47.554;8.504;2022-09-09T13:16:18;3.43;;;0.60;;
73938;SDS011;62291;47.554;8.504;2022-09-09T13:18:47;3.92;;;0.70;;
73938;SDS011;62291;47.554;8.504;2022-09-09T13:21:12;2.28;;;0.40;;
73938;SDS011;62291;47.554;8.504;2022-09-09T13:23:39;2.45;;;0.40;;
73938;SDS011;62291;47.554;8.504;2022-09-09T13:26:06;2.63;;;0.68;;
73938;SDS011;62291;47.554;8.504;2022-09-09T13:28:48;3.53;;;0.50;;
73938;SDS011;62291;47.554;8.504;2022-09-09T13:31:22;3.00;;;1.20;;
73938;SDS011;62291;47.554;8.504;2022-09-09T13:33:52;2.65;;;0.80;;
73938;SDS011;62291;47.554;8.504;2022-09-09T13:36:27;2.95;;;0.80;;
73938;SDS011;62291;47.554;8.504;2022-09-09T13:38:57;2.25;;;0.70;;
73938;SDS011;62291;47.554;8.504;2022-09-09T13:41:29;2.92;;;0.60;;
73938;SDS011;62291;47.554;8.504;2022-09-09T13:44:00;2.90;;;0.68;;
73938;SDS011;62291;47.554;8.504;2022-09-09T13:46:32;1.83;;;0.50;;
73938;SDS011;62291;47.554;8.504;2022-09-09T13:51:36;3.35;;;0.50;;
73938;SDS011;62291;47.554;8.504;2022-09-09T13:54:05;2.30;;;0.90;;
73938;SDS011;62291;47.554;8.504;2022-09-09T13:56:34;1.80;;;0.55;;
73938;SDS011;62291;47.554;8.504;2022-09-09T13:59:00;4.50;;;0.80;;
73938;SDS011;62291;47.554;8.504;2022-09-09T14:01:26;1.52;;;0.40;;
73938;SDS011;62291;47.554;8.504;2022-09-09T14:03:52;2.97;;;0.50;;
73938;SDS011;62291;47.554;8.504;2022-09-09T14:06:18;4.35;;;0.88;;
73938;SDS011;62291;47.554;8.504;2022-09-09T14:08:46;2.00;;;0.50;;
73938;SDS011;62291;47.554;8.504;2022-09-09T14:11:14;3.45;;;0.80;;
73938;SDS011;62291;47.554;8.504;2022-09-09T14:13:40;3.08;;;0.40;;
73938;SDS011;62291;47.554;8.504;2022-09-09T14:16:05;2.65;;;0.50;;
73938;SDS011;62291;47.554;8.504;2022-09-09T14:18:31;3.20;;;0.47;;
73938;SDS011;62291;47.554;8.504;2022-09-09T14:20:57;4.18;;;0.50;;
73938;SDS011;62291;47.554;8.504;2022-09-09T14:23:23;2.65;;;0.55;;
73938;SDS011;62291;47.554;8.504;2022-09-09T14:25:49;2.10;;;0.60;;
73938;SDS011;62291;47.554;8.504;2022-09-09T14:28:15;4.78;;;0.45;;
73938;SDS011;62291;47.554;8.504;2022-09-09T14:30:41;3.08;;;0.40;;
73938;SDS011;62291;47.554;8.504;2022-09-09T14:33:10;4.35;;;0.40;;
73938;SDS011;62291;47.554;8.504;2022-09-09T14:35:37;3.47;;;0.60;;
73938;SDS011;62291;47.554;8.504;2022-09-09T14:38:03;6.60;;;0.60;;
73938;SDS011;62291;47.554;8.504;2022-09-09T14:40:29;3.90;;;0.80;;
73938;SDS011;62291;47.554;8.504;2022-09-09T14:42:55;3.95;;;0.40;;
73938;SDS011;62291;47.554;8.504;2022-09-09T14:45:22;3.20;;;0.73;;
73938;SDS011;62291;47.554;8.504;2022-09-09T14:47:50;2.40;;;0.40;;
73938;SDS011;62291;47.554;8.504;2022-09-09T14:50:16;4.88;;;0.50;;
73938;SDS011;62291;47.554;8.504;2022-09-09T14:52:45;1.92;;;0.38;;
73938;SDS011;62291;47.554;8.504;2022-09-09T14:55:11;1.52;;;0.30;;
73938;SDS011;62291;47.554;8.504;2022-09-09T14:57:37;1.33;;;0.25;;
73938;SDS011;62291;47.554;8.504;2022-09-09T15:00:05;4.15;;;0.60;;
73938;SDS011;62291;47.554;8.504;2022-09-09T15:02:32;1.67;;;0.30;;
73938;SDS011;62291;47.554;8.504;2022-09-09T15:04:58;7.13;;;0.77;;
73938;SDS011;62291;47.554;8.504;2022-09-09T15:07:24;2.17;;;0.30;;
73938;SDS011;62291;47.554;8.504;2022-09-09T15:09:50;2.42;;;0.38;;
73938;SDS011;62291;47.554;8.504;2022-09-09T15:12:16;1.95;;;0.57;;
73938;SDS011;62291;47.554;8.504;2022-09-09T15:14:43;3.38;;;0.50;;
73938;SDS011;62291;47.554;8.504;2022-09-09T15:17:10;1.70;;;0.40;;
73938;SDS011;62291;47.554;8.504;2022-09-09T15:19:36;1.45;;;0.30;;
73938;SDS011;62291;47.554;8.504;2022-09-09T15:22:03;1.40;;;0.40;;
73938;SDS011;62291;47.554;8.504;2022-09-09T15:24:32;1.85;;;0.40;;
73938;SDS011;62291;47.554;8.504;2022-09-09T15:26:59;2.80;;;0.30;;
73938;SDS011;62291;47.554;8.504;2022-09-09T15:29:25;1.92;;;0.40;;
73938;SDS011;62291;47.554;8.504;2022-09-09T15:31:50;3.05;;;0.30;;
73938;SDS011;62291;47.554;8.504;2022-09-09T15:34:18;1.05;;;0.20;;
73938;SDS011;62291;47.554;8.504;2022-09-09T15:36:44;1.80;;;0.45;;
73938;SDS011;62291;47.554;8.504;2022-09-09T15:39:13;0.75;;;0.20;;
73938;SDS011;62291;47.554;8.504;2022-09-09T15:41:41;2.05;;;0.57;;
73938;SDS011;62291;47.554;8.504;2022-09-09T15:44:08;2.00;;;0.32;;
73938;SDS011;62291;47.554;8.504;2022-09-09T15:46:41;0.65;;;0.38;;
73938;SDS011;62291;47.554;8.504;2022-09-09T15:49:17;3.83;;;0.43;;
73938;SDS011;62291;47.554;8.504;2022-09-09T15:51:45;2.10;;;0.75;;
73938;SDS011;62291;47.554;8.504;2022-09-09T15:54:13;2.50;;;0.30;;
73938;SDS011;62291;47.554;8.504;2022-09-09T15:56:42;3.40;;;0.50;;
73938;SDS011;62291;47.554;8.504;2022-09-09T15:59:08;2.38;;;0.40;;
73938;SDS011;62291;47.554;8.504;2022-09-09T16:01:34;1.63;;;0.30;;
73938;SDS011;62291;47.554;8.504;2022-09-09T16:04:00;2.35;;;0.45;;
73938;SDS011;62291;47.554;8.504;2022-09-09T16:06:27;2.35;;;0.43;;
73938;SDS011;62291;47.554;8.504;2022-09-09T16:08:54;1.55;;;0.30;;
73938;SDS011;62291;47.554;8.504;2022-09-09T16:11:27;2.88;;;0.63;;
73938;SDS011;62291;47.554;8.504;2022-09-09T16:13:55;1.67;;;0.40;;
73938;SDS011;62291;47.554;8.504;2022-09-09T16:16:24;2.22;;;0.40;;
73938;SDS011;62291;47.554;8.504;2022-09-09T16:18:52;2.38;;;0.60;;
73938;SDS011;62291;47.554;8.504;2022-09-09T16:21:30;4.00;;;0.50;;
73938;SDS011;62291;47.554;8.504;2022-09-09T16:23:58;2.33;;;0.50;;
73938;SDS011;62291;47.554;8.504;2022-09-09T16:26:24;1.65;;;0.63;;
73938;SDS011;62291;47.554;8.504;2022-09-09T16:28:50;1.08;;;0.30;;
73938;SDS011;62291;47.554;8.504;2022-09-09T16:31:20;3.75;;;0.40;;
73938;SDS011;62291;47.554;8.504;2022-09-09T16:33:49;2.50;;;0.40;;
73938;SDS011;62291;47.554;8.504;2022-09-09T16:36:16;3.63;;;0.85;;
73938;SDS011;62291;47.554;8.504;2022-09-09T16:38:46;1.75;;;0.38;;
73938;SDS011;62291;47.554;8.504;2022-09-09T16:41:12;2.00;;;0.45;;
73938;SDS011;62291;47.554;8.504;2022-09-09T16:43:39;2.45;;;0.43;;
73938;SDS011;62291;47.554;8.504;2022-09-09T16:46:11;4.30;;;0.47;;
73938;SDS011;62291;47.554;8.504;2022-09-09T16:48:40;2.20;;;0.60;;
73938;SDS011;62291;47.554;8.504;2022-09-09T16:51:06;3.03;;;0.68;;
73938;SDS011;62291;47.554;8.504;2022-09-09T16:53:36;4.38;;;0.57;;
73938;SDS011;62291;47.554;8.504;2022-09-09T16:56:05;3.63;;;0.65;;
73938;SDS011;62291;47.554;8.504;2022-09-09T16:58:32;3.42;;;0.30;;
73938;SDS011;62291;47.554;8.504;2022-09-09T17:00:58;2.22;;;0.40;;
73938;SDS011;62291;47.554;8.504;2022-09-09T17:03:25;1.30;;;0.25;;
73938;SDS011;62291;47.554;8.504;2022-09-09T17:05:51;2.78;;;0.45;;
73938;SDS011;62291;47.554;8.504;2022-09-09T17:08:16;2.58;;;0.50;;
73938;SDS011;62291;47.554;8.504;2022-09-09T17:10:42;2.17;;;0.43;;
73938;SDS011;62291;47.554;8.504;2022-09-09T17:13:08;2.35;;;0.50;;
73938;SDS011;62291;47.554;8.504;2022-09-09T17:15:38;2.05;;;0.52;;
73938;SDS011;62291;47.554;8.504;2022-09-09T17:18:07;5.13;;;0.50;;
73938;SDS011;62291;47.554;8.504;2022-09-09T17:20:37;1.98;;;0.40;;
73938;SDS011;62291;47.554;8.504;2022-09-09T17:23:05;4.15;;;0.63;;
73938;SDS011;62291;47.554;8.504;2022-09-09T17:25:31;3.78;;;0.85;;
73938;SDS011;62291;47.554;8.504;2022-09-09T17:27:57;2.67;;;0.40;;
73938;SDS011;62291;47.554;8.504;2022-09-09T17:30:24;4.45;;;0.60;;
73938;SDS011;62291;47.554;8.504;2022-09-09T17:32:51;4.22;;;1.05;;
73938;SDS011;62291;47.554;8.504;2022-09-09T17:35:16;4.43;;;2.03;;
73938;SDS011;62291;47.554;8.504;2022-09-09T17:37:42;3.08;;;0.60;;